15:26
Airports
History
Links
Donate
Help keep this website running!
PayPal
Bitcoin
This page is community maintained. The information is intended for PC simulator navigation or reference.
Always use approved charts for navigation.
EK01
Vallund Olgod (E410)
Vallund Olgod (E410) (EK01)
Olgod, Syddanmark, Denmark (6870)
4
Lat/Lng:55° 50' 0.38" N / 8° 33' 10.16" E
55.833439 / 8.552822
Elevation:127'ft / 39mMSL
ID / ICAO:EK01
Runways:1
Longest:07-25
Grass 660m / 2,165ft
Nearby Weather14:50 GMT 2018-01-19
Nearby weather at EKVJ, Stauning located 13.3 nautical miles from EK01
Altimeter: 29.53
Visibility: 6.2 statute miles
Wind: 9 knots (from 210°)
Temp: 2°c / 36°f
Humidity: 100.0%

METAR: EKVJ 191450Z 21009KT 9999 -RADZ FEW010 BKN020 02/02 Q1000

(Powered by phpweather)
Nearby VORs <50NM
Nearby NDBs
Runway 07 / 25
Dimensions:659.8 x 29.9m 2165' x 98'ft
Surface:Grass
Runway 07 [A]Runway 25 [B]
Heading:072°TH 252°TH
Lat:
Lng:
55° 49' 57.09"N
8° 32' 52.06"E
55° 50' 3.68"N
8° 33' 28.26"E
User Notes and Comments
55° 50' 0.38" N / 8° 33' 10.16" E
Distance To
Airport ID:
Nearby Airports
4 Soender Felding Vest 10.8 NM
EK42 NE 43°
(C) Stauning 13.3 NM
EKVJ ( WX ) NW 324°
4 Ejstruphede 14.0 NM
EK61 NNE 22°
4 Nymindegab 14.3 NM
EK41 W 268°
4 Bolhede 16.0 NM
EK10 SSE 150°
4 Varde 16.1 NM
EK49 SSW 195°
4 Spjald 18.7 NM
EKSD N 355°
VFR Chart
Flight Planning at SkyVector.com